ROMMA est une association bénévole à but non lucratif. Votre soutien est indispensable : ADHERER à ROMMA ou FAIRE un DON

Ambérieu-en-Bugey - (01, Ain)

Bugey (255 m)   Longitude: 05° 21' 7"E   Latitude: 45° 58' 24"N Station partenaire n°84
 

Détail journalier du     <<     >>

Température Precipitation Humidité Pression Vent Dir Rafale Dir. rafale
Heure (°C) (mm) (%) (hPa) (km/h) (km/h)
01:00 5.108710211NE6NE
02:00 4.808710211NE6ENE
03:00 5.408710212ENE10NE
04:00 4.608710203NE8NE
05:00 4.308710204NE11NE
06:00 4.208710204ENE11E
07:00 3.808710204ENE11ENE
08:00 4.9086102006ENE
09:00 7.408610203NNE10NNE
10:00 9.908110203NNE10E
11:00 12.707310204N13N
12:00 14.806310206NNE23NNO
13:00 15.806110196N26NNE
14:00 16.905810198NNE23NNE
15:00 16.705810188N23N
16:00 16.805810189N26N
17:00 17.105810178N26N
18:00 17.006110178N24N
19:00 17.2058101710N27NNE
20:00 15.606310178NNE27N
21:00 13.707010177NNE24NNE
22:00 11.807810183NE18ENE
23:00 10.708210182NE15NE
minuit 9.408410182NE13ENE

Graphique du 30-04-2019

 

Serveur OMMA